ěÝzenÝ letovÚho provozu ╚eskÚ republiky
Letiste: LKLN Aktualizace: 19.01.2021 15:26:23  UTC
 METAR LKLN 19.01. 15:30 ...
METAR LKLN 191530Z AUTO 22011KT 2000 -SN BKN007 OVC012 M00/M00 Q1011=